sensor_id;sensor_type;location;lat;lon;timestamp;P1;durP1;ratioP1;P2;durP2;ratioP2
3155;SDS011;1588;50.892;7.082;2023-06-24T00:02:19;16.70;;;9.80;;
3155;SDS011;1588;50.892;7.082;2023-06-24T00:07:27;17.83;;;9.30;;
3155;SDS011;1588;50.892;7.082;2023-06-24T00:12:31;10.60;;;7.50;;
3155;SDS011;1588;50.892;7.082;2023-06-24T00:17:35;17.70;;;9.07;;
3155;SDS011;1588;50.892;7.082;2023-06-24T00:22:38;11.23;;;8.70;;
3155;SDS011;1588;50.892;7.082;2023-06-24T00:27:44;12.30;;;8.80;;
3155;SDS011;1588;50.892;7.082;2023-06-24T00:32:47;13.30;;;8.77;;
3155;SDS011;1588;50.892;7.082;2023-06-24T00:37:50;18.60;;;9.10;;
3155;SDS011;1588;50.892;7.082;2023-06-24T00:43:00;17.60;;;9.37;;
3155;SDS011;1588;50.892;7.082;2023-06-24T00:48:04;12.87;;;8.60;;
3155;SDS011;1588;50.892;7.082;2023-06-24T00:53:07;17.27;;;9.10;;
3155;SDS011;1588;50.892;7.082;2023-06-24T00:58:10;16.60;;;9.20;;
3155;SDS011;1588;50.892;7.082;2023-06-24T01:03:17;15.00;;;9.13;;
3155;SDS011;1588;50.892;7.082;2023-06-24T01:08:20;12.87;;;9.07;;
3155;SDS011;1588;50.892;7.082;2023-06-24T01:13:23;15.30;;;9.10;;
3155;SDS011;1588;50.892;7.082;2023-06-24T01:18:28;16.77;;;9.60;;
3155;SDS011;1588;50.892;7.082;2023-06-24T01:23:42;15.30;;;8.93;;
3155;SDS011;1588;50.892;7.082;2023-06-24T01:34:55;14.50;;;8.93;;
3155;SDS011;1588;50.892;7.082;2023-06-24T01:40:04;18.23;;;9.30;;
3155;SDS011;1588;50.892;7.082;2023-06-24T01:45:12;17.93;;;9.10;;
3155;SDS011;1588;50.892;7.082;2023-06-24T01:50:19;14.80;;;8.70;;
3155;SDS011;1588;50.892;7.082;2023-06-24T01:55:23;17.30;;;10.27;;
3155;SDS011;1588;50.892;7.082;2023-06-24T02:00:28;16.93;;;10.00;;
3155;SDS011;1588;50.892;7.082;2023-06-24T02:05:32;13.67;;;8.97;;
3155;SDS011;1588;50.892;7.082;2023-06-24T02:10:36;14.30;;;9.40;;
3155;SDS011;1588;50.892;7.082;2023-06-24T02:15:39;18.03;;;9.70;;
3155;SDS011;1588;50.892;7.082;2023-06-24T02:20:44;14.47;;;8.57;;
3155;SDS011;1588;50.892;7.082;2023-06-24T02:25:47;15.57;;;9.47;;
3155;SDS011;1588;50.892;7.082;2023-06-24T02:30:51;14.10;;;9.17;;
3155;SDS011;1588;50.892;7.082;2023-06-24T02:35:55;15.17;;;8.63;;
3155;SDS011;1588;50.892;7.082;2023-06-24T02:40:57;17.50;;;9.60;;
3155;SDS011;1588;50.892;7.082;2023-06-24T02:46:01;16.27;;;9.33;;
3155;SDS011;1588;50.892;7.082;2023-06-24T02:51:06;14.10;;;8.90;;
3155;SDS011;1588;50.892;7.082;2023-06-24T02:56:11;13.93;;;8.97;;
3155;SDS011;1588;50.892;7.082;2023-06-24T03:01:17;17.67;;;8.93;;
3155;SDS011;1588;50.892;7.082;2023-06-24T03:06:26;18.33;;;9.50;;
3155;SDS011;1588;50.892;7.082;2023-06-24T03:11:28;12.80;;;9.43;;
3155;SDS011;1588;50.892;7.082;2023-06-24T03:16:31;17.47;;;9.50;;
3155;SDS011;1588;50.892;7.082;2023-06-24T03:21:35;14.63;;;10.10;;
3155;SDS011;1588;50.892;7.082;2023-06-24T03:26:38;18.00;;;9.50;;
3155;SDS011;1588;50.892;7.082;2023-06-24T03:31:41;19.60;;;9.70;;
3155;SDS011;1588;50.892;7.082;2023-06-24T03:36:45;16.20;;;9.70;;
3155;SDS011;1588;50.892;7.082;2023-06-24T03:41:48;15.40;;;9.27;;
3155;SDS011;1588;50.892;7.082;2023-06-24T03:46:50;16.37;;;9.10;;
3155;SDS011;1588;50.892;7.082;2023-06-24T03:51:54;17.70;;;9.13;;
3155;SDS011;1588;50.892;7.082;2023-06-24T03:56:56;14.67;;;9.23;;
3155;SDS011;1588;50.892;7.082;2023-06-24T04:01:58;15.80;;;9.13;;
3155;SDS011;1588;50.892;7.082;2023-06-24T04:07:02;15.80;;;9.93;;
3155;SDS011;1588;50.892;7.082;2023-06-24T04:12:06;14.97;;;9.90;;
3155;SDS011;1588;50.892;7.082;2023-06-24T04:17:08;15.97;;;9.67;;
3155;SDS011;1588;50.892;7.082;2023-06-24T04:22:12;18.60;;;10.40;;
3155;SDS011;1588;50.892;7.082;2023-06-24T04:27:14;19.27;;;9.97;;
3155;SDS011;1588;50.892;7.082;2023-06-24T04:32:17;14.37;;;10.13;;
3155;SDS011;1588;50.892;7.082;2023-06-24T04:37:23;15.60;;;9.57;;
3155;SDS011;1588;50.892;7.082;2023-06-24T04:42:25;19.73;;;10.13;;
3155;SDS011;1588;50.892;7.082;2023-06-24T04:47:27;19.80;;;9.67;;
3155;SDS011;1588;50.892;7.082;2023-06-24T04:52:32;23.93;;;9.77;;
3155;SDS011;1588;50.892;7.082;2023-06-24T04:57:34;18.00;;;10.33;;
3155;SDS011;1588;50.892;7.082;2023-06-24T05:02:36;16.73;;;9.40;;
3155;SDS011;1588;50.892;7.082;2023-06-24T05:07:40;14.30;;;8.50;;
3155;SDS011;1588;50.892;7.082;2023-06-24T05:12:42;14.93;;;9.57;;
3155;SDS011;1588;50.892;7.082;2023-06-24T05:17:44;16.43;;;9.90;;
3155;SDS011;1588;50.892;7.082;2023-06-24T05:22:48;13.10;;;9.13;;
3155;SDS011;1588;50.892;7.082;2023-06-24T05:27:50;12.67;;;8.90;;
3155;SDS011;1588;50.892;7.082;2023-06-24T05:32:52;13.00;;;8.23;;
3155;SDS011;1588;50.892;7.082;2023-06-24T05:37:56;14.90;;;8.40;;
3155;SDS011;1588;50.892;7.082;2023-06-24T05:42:58;14.07;;;7.80;;
3155;SDS011;1588;50.892;7.082;2023-06-24T05:48:02;14.93;;;7.80;;
3155;SDS011;1588;50.892;7.082;2023-06-24T05:53:05;8.53;;;6.37;;
3155;SDS011;1588;50.892;7.082;2023-06-24T05:58:08;11.73;;;7.43;;
3155;SDS011;1588;50.892;7.082;2023-06-24T06:03:10;12.03;;;7.73;;
3155;SDS011;1588;50.892;7.082;2023-06-24T06:08:13;15.13;;;7.80;;
3155;SDS011;1588;50.892;7.082;2023-06-24T06:13:15;17.07;;;8.13;;
3155;SDS011;1588;50.892;7.082;2023-06-24T06:18:18;10.87;;;8.00;;
3155;SDS011;1588;50.892;7.082;2023-06-24T06:23:21;12.60;;;7.20;;
3155;SDS011;1588;50.892;7.082;2023-06-24T06:28:24;13.63;;;7.90;;
3155;SDS011;1588;50.892;7.082;2023-06-24T06:33:26;15.03;;;7.27;;
3155;SDS011;1588;50.892;7.082;2023-06-24T06:38:29;10.43;;;7.00;;
3155;SDS011;1588;50.892;7.082;2023-06-24T06:43:32;13.33;;;6.73;;
3155;SDS011;1588;50.892;7.082;2023-06-24T06:48:35;10.33;;;8.03;;
3155;SDS011;1588;50.892;7.082;2023-06-24T06:53:38;14.30;;;8.07;;
3155;SDS011;1588;50.892;7.082;2023-06-24T06:58:44;12.00;;;8.40;;
3155;SDS011;1588;50.892;7.082;2023-06-24T07:03:48;15.10;;;8.43;;
3155;SDS011;1588;50.892;7.082;2023-06-24T07:08:52;14.90;;;8.60;;
3155;SDS011;1588;50.892;7.082;2023-06-24T07:13:55;15.70;;;8.10;;
3155;SDS011;1588;50.892;7.082;2023-06-24T07:18:57;15.13;;;9.30;;
3155;SDS011;1588;50.892;7.082;2023-06-24T07:24:01;19.33;;;9.17;;
3155;SDS011;1588;50.892;7.082;2023-06-24T07:29:05;20.20;;;8.83;;
3155;SDS011;1588;50.892;7.082;2023-06-24T07:34:08;14.67;;;8.87;;
3155;SDS011;1588;50.892;7.082;2023-06-24T07:39:11;17.60;;;8.97;;
3155;SDS011;1588;50.892;7.082;2023-06-24T07:44:13;13.37;;;8.53;;
3155;SDS011;1588;50.892;7.082;2023-06-24T07:49:16;13.47;;;9.20;;
3155;SDS011;1588;50.892;7.082;2023-06-24T07:54:19;18.57;;;8.90;;
3155;SDS011;1588;50.892;7.082;2023-06-24T07:59:22;12.43;;;9.00;;
3155;SDS011;1588;50.892;7.082;2023-06-24T08:04:25;13.00;;;8.73;;
3155;SDS011;1588;50.892;7.082;2023-06-24T08:09:29;17.80;;;10.47;;
3155;SDS011;1588;50.892;7.082;2023-06-24T08:14:31;19.73;;;9.30;;
3155;SDS011;1588;50.892;7.082;2023-06-24T08:19:33;14.20;;;7.87;;
3155;SDS011;1588;50.892;7.082;2023-06-24T08:24:37;16.33;;;8.10;;
3155;SDS011;1588;50.892;7.082;2023-06-24T08:29:39;15.10;;;8.17;;
3155;SDS011;1588;50.892;7.082;2023-06-24T08:34:41;13.60;;;9.20;;
3155;SDS011;1588;50.892;7.082;2023-06-24T08:39:46;17.60;;;10.50;;
3155;SDS011;1588;50.892;7.082;2023-06-24T08:44:48;16.57;;;8.80;;
3155;SDS011;1588;50.892;7.082;2023-06-24T08:49:52;12.83;;;8.33;;
3155;SDS011;1588;50.892;7.082;2023-06-24T08:54:58;14.23;;;8.47;;
3155;SDS011;1588;50.892;7.082;2023-06-24T09:00:01;18.20;;;8.20;;
3155;SDS011;1588;50.892;7.082;2023-06-24T09:05:05;13.07;;;6.77;;
3155;SDS011;1588;50.892;7.082;2023-06-24T09:10:09;9.87;;;6.50;;
3155;SDS011;1588;50.892;7.082;2023-06-24T09:15:13;12.80;;;6.90;;
3155;SDS011;1588;50.892;7.082;2023-06-24T09:20:16;17.83;;;7.90;;
3155;SDS011;1588;50.892;7.082;2023-06-24T09:25:24;7.53;;;5.53;;
3155;SDS011;1588;50.892;7.082;2023-06-24T09:30:26;10.87;;;6.30;;
3155;SDS011;1588;50.892;7.082;2023-06-24T09:35:29;9.33;;;4.70;;
3155;SDS011;1588;50.892;7.082;2023-06-24T09:40:39;7.93;;;4.53;;
3155;SDS011;1588;50.892;7.082;2023-06-24T09:45:41;7.27;;;4.63;;
3155;SDS011;1588;50.892;7.082;2023-06-24T09:50:43;13.10;;;5.50;;
3155;SDS011;1588;50.892;7.082;2023-06-24T09:55:47;7.47;;;4.87;;
3155;SDS011;1588;50.892;7.082;2023-06-24T10:00:50;6.80;;;4.87;;
3155;SDS011;1588;50.892;7.082;2023-06-24T10:05:54;9.80;;;5.13;;
3155;SDS011;1588;50.892;7.082;2023-06-24T10:10:58;13.13;;;5.13;;
3155;SDS011;1588;50.892;7.082;2023-06-24T10:16:02;9.50;;;4.90;;
3155;SDS011;1588;50.892;7.082;2023-06-24T10:21:05;9.73;;;4.50;;
3155;SDS011;1588;50.892;7.082;2023-06-24T10:26:10;10.73;;;4.80;;
3155;SDS011;1588;50.892;7.082;2023-06-24T10:31:40;8.33;;;4.70;;
3155;SDS011;1588;50.892;7.082;2023-06-24T10:36:53;7.13;;;4.63;;
3155;SDS011;1588;50.892;7.082;2023-06-24T10:41:57;8.47;;;4.50;;
3155;SDS011;1588;50.892;7.082;2023-06-24T10:47:38;3.73;;;3.43;;
3155;SDS011;1588;50.892;7.082;2023-06-24T10:52:42;5.23;;;4.17;;
3155;SDS011;1588;50.892;7.082;2023-06-24T10:57:47;4.97;;;4.10;;
3155;SDS011;1588;50.892;7.082;2023-06-24T11:02:49;4.60;;;3.60;;
3155;SDS011;1588;50.892;7.082;2023-06-24T11:07:51;7.20;;;4.30;;
3155;SDS011;1588;50.892;7.082;2023-06-24T11:12:55;5.70;;;3.90;;
3155;SDS011;1588;50.892;7.082;2023-06-24T11:18:01;4.90;;;3.60;;
3155;SDS011;1588;50.892;7.082;2023-06-24T11:23:06;4.00;;;3.60;;
3155;SDS011;1588;50.892;7.082;2023-06-24T11:28:15;6.27;;;3.87;;
3155;SDS011;1588;50.892;7.082;2023-06-24T11:33:26;5.47;;;3.57;;
3155;SDS011;1588;50.892;7.082;2023-06-24T11:38:29;7.33;;;3.70;;
3155;SDS011;1588;50.892;7.082;2023-06-24T11:43:34;9.50;;;3.37;;
3155;SDS011;1588;50.892;7.082;2023-06-24T11:48:38;4.10;;;3.17;;
3155;SDS011;1588;50.892;7.082;2023-06-24T11:53:41;4.80;;;3.70;;
3155;SDS011;1588;50.892;7.082;2023-06-24T11:58:49;7.00;;;4.00;;
3155;SDS011;1588;50.892;7.082;2023-06-24T12:03:54;4.10;;;3.37;;
3155;SDS011;1588;50.892;7.082;2023-06-24T12:08:57;4.47;;;3.63;;
3155;SDS011;1588;50.892;7.082;2023-06-24T12:14:00;4.03;;;3.63;;
3155;SDS011;1588;50.892;7.082;2023-06-24T12:19:03;6.60;;;4.37;;
3155;SDS011;1588;50.892;7.082;2023-06-24T12:24:05;6.80;;;4.20;;
3155;SDS011;1588;50.892;7.082;2023-06-24T12:29:09;5.00;;;3.67;;
3155;SDS011;1588;50.892;7.082;2023-06-24T12:34:11;6.23;;;3.73;;
3155;SDS011;1588;50.892;7.082;2023-06-24T12:39:13;8.33;;;3.80;;
3155;SDS011;1588;50.892;7.082;2023-06-24T12:44:17;6.73;;;4.30;;
3155;SDS011;1588;50.892;7.082;2023-06-24T12:49:19;4.77;;;4.00;;
3155;SDS011;1588;50.892;7.082;2023-06-24T12:54:21;11.27;;;3.87;;
3155;SDS011;1588;50.892;7.082;2023-06-24T12:59:25;8.40;;;3.87;;
3155;SDS011;1588;50.892;7.082;2023-06-24T13:04:27;11.13;;;4.10;;
3155;SDS011;1588;50.892;7.082;2023-06-24T13:09:30;17.63;;;4.53;;
3155;SDS011;1588;50.892;7.082;2023-06-24T13:14:35;4.17;;;3.60;;
3155;SDS011;1588;50.892;7.082;2023-06-24T13:19:41;6.93;;;4.27;;
3155;SDS011;1588;50.892;7.082;2023-06-24T13:24:43;4.43;;;3.70;;
3155;SDS011;1588;50.892;7.082;2023-06-24T13:29:49;5.40;;;4.20;;
3155;SDS011;1588;50.892;7.082;2023-06-24T13:34:51;6.40;;;3.73;;
3155;SDS011;1588;50.892;7.082;2023-06-24T13:39:53;3.70;;;3.33;;
3155;SDS011;1588;50.892;7.082;2023-06-24T13:44:57;10.00;;;3.50;;
3155;SDS011;1588;50.892;7.082;2023-06-24T13:49:59;4.27;;;3.00;;
3155;SDS011;1588;50.892;7.082;2023-06-24T13:55:01;6.43;;;3.77;;
3155;SDS011;1588;50.892;7.082;2023-06-24T14:00:06;4.73;;;3.57;;
3155;SDS011;1588;50.892;7.082;2023-06-24T14:05:10;4.63;;;3.27;;
3155;SDS011;1588;50.892;7.082;2023-06-24T14:10:13;11.47;;;3.40;;
3155;SDS011;1588;50.892;7.082;2023-06-24T14:15:16;4.20;;;3.20;;
3155;SDS011;1588;50.892;7.082;2023-06-24T14:20:18;8.03;;;3.20;;
3155;SDS011;1588;50.892;7.082;2023-06-24T14:25:21;5.10;;;3.30;;
3155;SDS011;1588;50.892;7.082;2023-06-24T14:30:24;6.23;;;3.30;;
3155;SDS011;1588;50.892;7.082;2023-06-24T14:35:26;7.90;;;3.40;;
3155;SDS011;1588;50.892;7.082;2023-06-24T14:40:29;6.03;;;3.23;;
3155;SDS011;1588;50.892;7.082;2023-06-24T14:45:32;4.17;;;3.20;;
3155;SDS011;1588;50.892;7.082;2023-06-24T14:50:34;9.10;;;3.63;;
3155;SDS011;1588;50.892;7.082;2023-06-24T14:55:37;5.47;;;3.03;;
3155;SDS011;1588;50.892;7.082;2023-06-24T15:00:40;6.17;;;5.10;;
3155;SDS011;1588;50.892;7.082;2023-06-24T15:05:42;9.77;;;3.30;;
3155;SDS011;1588;50.892;7.082;2023-06-24T15:10:45;6.03;;;3.93;;
3155;SDS011;1588;50.892;7.082;2023-06-24T15:15:48;8.10;;;3.63;;
3155;SDS011;1588;50.892;7.082;2023-06-24T15:20:52;4.93;;;3.57;;
3155;SDS011;1588;50.892;7.082;2023-06-24T15:25:55;7.27;;;3.20;;
3155;SDS011;1588;50.892;7.082;2023-06-24T15:30:58;5.27;;;3.60;;
3155;SDS011;1588;50.892;7.082;2023-06-24T15:36:01;5.50;;;3.27;;
3155;SDS011;1588;50.892;7.082;2023-06-24T15:41:03;4.57;;;3.50;;
3155;SDS011;1588;50.892;7.082;2023-06-24T15:46:07;6.30;;;3.87;;
3155;SDS011;1588;50.892;7.082;2023-06-24T15:51:10;10.80;;;3.03;;
3155;SDS011;1588;50.892;7.082;2023-06-24T15:56:12;6.93;;;3.60;;
3155;SDS011;1588;50.892;7.082;2023-06-24T16:01:16;5.43;;;3.00;;
3155;SDS011;1588;50.892;7.082;2023-06-24T16:06:18;4.30;;;2.70;;
3155;SDS011;1588;50.892;7.082;2023-06-24T16:11:20;4.20;;;3.00;;
3155;SDS011;1588;50.892;7.082;2023-06-24T16:16:24;5.50;;;3.67;;
3155;SDS011;1588;50.892;7.082;2023-06-24T16:21:26;4.70;;;2.63;;
3155;SDS011;1588;50.892;7.082;2023-06-24T16:26:29;4.80;;;2.53;;
3155;SDS011;1588;50.892;7.082;2023-06-24T16:31:33;8.07;;;2.70;;
3155;SDS011;1588;50.892;7.082;2023-06-24T16:36:35;2.70;;;2.10;;
3155;SDS011;1588;50.892;7.082;2023-06-24T16:41:37;5.13;;;3.07;;
3155;SDS011;1588;50.892;7.082;2023-06-24T16:46:41;7.13;;;2.50;;
3155;SDS011;1588;50.892;7.082;2023-06-24T16:51:43;4.40;;;2.53;;
3155;SDS011;1588;50.892;7.082;2023-06-24T16:56:45;2.73;;;2.53;;
3155;SDS011;1588;50.892;7.082;2023-06-24T17:01:52;4.87;;;2.73;;
3155;SDS011;1588;50.892;7.082;2023-06-24T17:06:57;3.20;;;2.40;;
3155;SDS011;1588;50.892;7.082;2023-06-24T17:11:59;3.63;;;2.80;;
3155;SDS011;1588;50.892;7.082;2023-06-24T17:17:03;4.67;;;2.27;;
3155;SDS011;1588;50.892;7.082;2023-06-24T17:22:06;3.23;;;2.23;;
3155;SDS011;1588;50.892;7.082;2023-06-24T17:27:09;3.20;;;2.53;;
3155;SDS011;1588;50.892;7.082;2023-06-24T17:32:14;4.60;;;2.50;;
3155;SDS011;1588;50.892;7.082;2023-06-24T17:37:16;5.63;;;2.20;;
3155;SDS011;1588;50.892;7.082;2023-06-24T17:42:18;4.80;;;2.67;;
3155;SDS011;1588;50.892;7.082;2023-06-24T17:47:22;4.43;;;2.37;;
3155;SDS011;1588;50.892;7.082;2023-06-24T17:52:25;13.33;;;2.90;;
3155;SDS011;1588;50.892;7.082;2023-06-24T17:57:27;5.03;;;3.80;;
3155;SDS011;1588;50.892;7.082;2023-06-24T18:02:31;3.73;;;2.70;;
3155;SDS011;1588;50.892;7.082;2023-06-24T18:07:33;3.90;;;2.50;;
3155;SDS011;1588;50.892;7.082;2023-06-24T18:12:35;4.33;;;3.20;;
3155;SDS011;1588;50.892;7.082;2023-06-24T18:17:40;5.67;;;3.90;;
3155;SDS011;1588;50.892;7.082;2023-06-24T18:22:45;2.70;;;2.40;;
3155;SDS011;1588;50.892;7.082;2023-06-24T18:27:48;10.63;;;2.50;;
3155;SDS011;1588;50.892;7.082;2023-06-24T18:32:51;4.53;;;2.70;;
3155;SDS011;1588;50.892;7.082;2023-06-24T18:38:12;3.80;;;2.20;;
3155;SDS011;1588;50.892;7.082;2023-06-24T18:43:14;4.73;;;3.10;;
3155;SDS011;1588;50.892;7.082;2023-06-24T18:48:18;4.20;;;2.83;;
3155;SDS011;1588;50.892;7.082;2023-06-24T18:53:20;6.30;;;2.47;;
3155;SDS011;1588;50.892;7.082;2023-06-24T18:58:22;4.90;;;2.90;;
3155;SDS011;1588;50.892;7.082;2023-06-24T19:03:26;7.00;;;2.80;;
3155;SDS011;1588;50.892;7.082;2023-06-24T19:08:28;3.07;;;2.60;;
3155;SDS011;1588;50.892;7.082;2023-06-24T19:13:30;3.47;;;2.70;;
3155;SDS011;1588;50.892;7.082;2023-06-24T19:18:34;4.67;;;2.90;;
3155;SDS011;1588;50.892;7.082;2023-06-24T19:23:36;5.40;;;2.60;;
3155;SDS011;1588;50.892;7.082;2023-06-24T19:28:38;5.00;;;2.83;;
3155;SDS011;1588;50.892;7.082;2023-06-24T19:33:42;4.70;;;2.80;;
3155;SDS011;1588;50.892;7.082;2023-06-24T19:38:44;4.57;;;2.80;;
3155;SDS011;1588;50.892;7.082;2023-06-24T19:43:47;10.37;;;6.10;;
3155;SDS011;1588;50.892;7.082;2023-06-24T19:48:51;5.53;;;2.80;;
3155;SDS011;1588;50.892;7.082;2023-06-24T19:53:53;4.60;;;2.97;;
3155;SDS011;1588;50.892;7.082;2023-06-24T19:58:56;3.60;;;2.70;;
3155;SDS011;1588;50.892;7.082;2023-06-24T20:03:59;8.50;;;4.30;;
3155;SDS011;1588;50.892;7.082;2023-06-24T20:09:01;5.53;;;3.20;;
3155;SDS011;1588;50.892;7.082;2023-06-24T20:14:03;10.60;;;2.97;;
3155;SDS011;1588;50.892;7.082;2023-06-24T20:19:07;5.20;;;2.80;;
3155;SDS011;1588;50.892;7.082;2023-06-24T20:24:09;5.53;;;2.60;;
3155;SDS011;1588;50.892;7.082;2023-06-24T20:29:12;3.80;;;2.50;;
3155;SDS011;1588;50.892;7.082;2023-06-24T20:34:15;6.23;;;3.33;;
3155;SDS011;1588;50.892;7.082;2023-06-24T20:39:17;9.67;;;3.50;;
3155;SDS011;1588;50.892;7.082;2023-06-24T20:44:20;6.30;;;2.90;;
3155;SDS011;1588;50.892;7.082;2023-06-24T20:49:23;5.00;;;3.40;;
3155;SDS011;1588;50.892;7.082;2023-06-24T20:54:26;6.90;;;3.83;;
3155;SDS011;1588;50.892;7.082;2023-06-24T20:59:28;7.17;;;4.23;;
3155;SDS011;1588;50.892;7.082;2023-06-24T21:04:31;7.10;;;3.23;;
3155;SDS011;1588;50.892;7.082;2023-06-24T21:09:36;5.90;;;3.63;;
3155;SDS011;1588;50.892;7.082;2023-06-24T21:14:38;4.97;;;3.47;;
3155;SDS011;1588;50.892;7.082;2023-06-24T21:19:42;7.13;;;4.83;;
3155;SDS011;1588;50.892;7.082;2023-06-24T21:24:44;8.37;;;3.90;;
3155;SDS011;1588;50.892;7.082;2023-06-24T21:29:46;8.97;;;4.13;;
3155;SDS011;1588;50.892;7.082;2023-06-24T21:34:54;10.90;;;3.87;;
3155;SDS011;1588;50.892;7.082;2023-06-24T21:39:59;9.67;;;4.00;;
3155;SDS011;1588;50.892;7.082;2023-06-24T21:45:02;5.33;;;2.90;;
3155;SDS011;1588;50.892;7.082;2023-06-24T21:50:09;12.80;;;3.97;;
3155;SDS011;1588;50.892;7.082;2023-06-24T21:55:21;5.33;;;3.60;;
3155;SDS011;1588;50.892;7.082;2023-06-24T22:00:23;6.20;;;3.90;;
3155;SDS011;1588;50.892;7.082;2023-06-24T22:05:27;8.70;;;3.80;;
3155;SDS011;1588;50.892;7.082;2023-06-24T22:10:30;6.73;;;4.13;;
3155;SDS011;1588;50.892;7.082;2023-06-24T22:15:32;5.43;;;3.40;;
3155;SDS011;1588;50.892;7.082;2023-06-24T22:20:36;9.07;;;4.03;;
3155;SDS011;1588;50.892;7.082;2023-06-24T22:25:39;15.60;;;4.20;;
3155;SDS011;1588;50.892;7.082;2023-06-24T22:30:42;11.80;;;4.63;;
3155;SDS011;1588;50.892;7.082;2023-06-24T22:35:46;8.77;;;4.73;;
3155;SDS011;1588;50.892;7.082;2023-06-24T22:41:00;6.67;;;4.10;;
3155;SDS011;1588;50.892;7.082;2023-06-24T22:46:04;7.60;;;4.40;;
3155;SDS011;1588;50.892;7.082;2023-06-24T22:51:08;6.27;;;4.37;;
3155;SDS011;1588;50.892;7.082;2023-06-24T22:56:11;13.30;;;4.27;;
3155;SDS011;1588;50.892;7.082;2023-06-24T23:01:13;9.37;;;4.87;;
3155;SDS011;1588;50.892;7.082;2023-06-24T23:06:17;12.90;;;4.90;;
3155;SDS011;1588;50.892;7.082;2023-06-24T23:11:20;9.23;;;4.40;;
3155;SDS011;1588;50.892;7.082;2023-06-24T23:16:30;13.03;;;4.90;;
3155;SDS011;1588;50.892;7.082;2023-06-24T23:21:34;7.60;;;4.53;;
3155;SDS011;1588;50.892;7.082;2023-06-24T23:26:37;9.30;;;4.63;;
3155;SDS011;1588;50.892;7.082;2023-06-24T23:31:43;9.40;;;4.67;;
3155;SDS011;1588;50.892;7.082;2023-06-24T23:36:47;10.60;;;4.60;;
3155;SDS011;1588;50.892;7.082;2023-06-24T23:41:49;6.87;;;4.70;;
3155;SDS011;1588;50.892;7.082;2023-06-24T23:46:51;5.83;;;4.40;;
3155;SDS011;1588;50.892;7.082;2023-06-24T23:51:57;10.43;;;5.40;;
3155;SDS011;1588;50.892;7.082;2023-06-24T23:56:59;9.63;;;5.30;;
